South Zanesville, Ohio
Current Conditions -  °F | °C
As of 9:53 AM on Monday 22 Dec 2014 (Local Time) from KZZV Reporting Station
Haze Haze  
Wind Chill: 30°   Ceiling: 5500
Heat Index: 30°   Visibility: 4mi
Dew Point: 25°   Wind: 3mph
Humidity: 82%   Direction: 50°NE
Pressure: 30.07"   Gusts: NA
Location:  39.9406°N, 82.0133°W
Report Text: KZZV 221453Z AUTO 05003KT 4SM HZ OVC055 M01/M04 A3007 RMK AO2 SLP192 T10111039 58004 $
Loading
Personal Weather Stations






























Interactive Weather Map New forecast layout! Learn more

10-Day Weather Forecast

Advertisements
Track Severe Weather on mobile